Time;durP1;ratioP1;P1;durP2;ratioP2;P2;SDS_P1;SDS_P2;PMS_P1;PMS_P2;Temp;Humidity;BMP_temperature;BMP_pressure;BME280_temperature;BME280_humidity;BME280_pressure;Samples;Min_cycle;Max_cycle;Signal;HPM_P1;HPM_P2
2022/02/03 00:00:08;;;;;;;7.20;6.53;;;5.90;99.90;;;;;;5068096;28;20235;-71
2022/02/03 00:02:42;;;;;;;7.60;6.43;;;5.90;99.90;;;;;;5067159;28;20214;-70
2022/02/03 00:05:13;;;;;;;7.03;6.32;;;5.90;99.90;;;;;;5067594;28;20224;-71
2022/02/03 00:07:51;;;;;;;6.60;6.00;;;5.90;99.90;;;;;;5067230;28;20211;-71
2022/02/03 00:10:38;;;;;;;8.10;6.80;;;6.00;99.90;;;;;;5067384;28;20202;-71
2022/02/03 00:16:29;;;;;;;8.02;6.60;;;6.00;99.90;;;;;;5066911;28;20227;-71
2022/02/03 00:22:14;;;;;;;7.60;5.85;;;6.00;99.90;;;;;;5070787;28;20199;-71
2022/02/03 00:25:01;;;;;;;9.07;6.80;;;6.00;99.90;;;;;;5070448;28;20279;-70
2022/02/03 00:27:41;;;;;;;7.10;5.90;;;6.00;99.90;;;;;;5070858;28;20267;-72
2022/02/03 00:30:12;;;;;;;6.45;5.50;;;6.10;99.90;;;;;;5070617;28;20277;-71
2022/02/03 00:32:51;;;;;;;6.32;5.65;;;6.10;99.90;;;;;;5069939;28;20327;-72
2022/02/03 00:35:40;;;;;;;7.05;6.07;;;6.10;99.90;;;;;;5070672;28;20345;-72
2022/02/03 00:49:15;;;;;;;6.22;5.55;;;6.10;99.90;;;;;;5070845;28;20574;-72
2022/02/03 00:51:44;;;;;;;6.05;5.20;;;6.20;99.90;;;;;;5070605;28;20196;-72
2022/02/03 00:54:11;;;;;;;5.97;5.38;;;6.20;99.90;;;;;;5070340;28;20758;-70
2022/02/03 00:56:40;;;;;;;6.43;5.20;;;6.20;99.90;;;;;;5071384;28;20235;-72
2022/02/03 00:59:10;;;;;;;6.63;5.43;;;6.20;99.90;;;;;;5070489;28;20211;-71
2022/02/03 01:01:41;;;;;;;5.88;5.28;;;6.30;99.90;;;;;;5070372;28;20200;-72
2022/02/03 01:04:09;;;;;;;6.13;5.53;;;6.30;99.90;;;;;;5070171;28;20200;-71
2022/02/03 01:06:43;;;;;;;5.30;4.85;;;6.30;99.90;;;;;;5070319;28;20228;-72
2022/02/03 01:09:11;;;;;;;5.80;5.25;;;6.30;99.90;;;;;;5070304;28;21007;-71
2022/02/03 01:11:43;;;;;;;7.43;5.63;;;6.30;99.90;;;;;;5070041;28;20200;-72
2022/02/03 01:14:14;;;;;;;5.60;5.10;;;6.40;99.90;;;;;;5069881;28;20353;-72
2022/02/03 01:17:01;;;;;;;5.65;4.70;;;6.40;99.90;;;;;;5069818;28;20228;-72
2022/02/03 01:44:15;;;;;;;5.10;4.65;;;6.40;99.90;;;;;;5011860;28;20202;-76
2022/02/03 01:46:51;;;;;;;5.25;4.75;;;6.40;99.90;;;;;;5012359;28;20229;-75
2022/02/03 01:51:36;;;;;;;5.30;4.63;;;6.40;99.90;;;;;;5012489;28;20210;-75
2022/02/03 01:52:27;;;;;;;4.95;4.45;;;6.40;99.90;;;;;;5011705;28;20570;-75
2022/02/03 01:54:58;;;;;;;5.40;4.60;;;6.40;99.90;;;;;;5012228;28;20240;-76
2022/02/03 01:57:34;;;;;;;5.13;4.55;;;6.40;99.90;;;;;;5012274;28;20240;-76
2022/02/03 02:00:04;;;;;;;4.97;4.47;;;6.40;99.90;;;;;;5012259;28;20209;-75
2022/02/03 02:02:33;;;;;;;5.35;4.93;;;6.40;99.90;;;;;;5011793;28;20213;-75
2022/02/03 02:05:10;;;;;;;5.32;4.45;;;6.40;99.90;;;;;;5012207;28;20230;-76
2022/02/03 02:07:52;;;;;;;5.18;4.68;;;6.30;99.90;;;;;;5012111;28;20619;-75
2022/02/03 02:10:45;;;;;;;5.55;4.50;;;6.30;99.90;;;;;;5012229;28;20203;-75
2022/02/03 02:13:33;;;;;;;5.07;4.25;;;6.30;99.90;;;;;;5011698;28;20206;-75
2022/02/03 02:16:16;;;;;;;5.75;4.32;;;6.30;99.90;;;;;;5012250;28;20319;-75
2022/02/03 02:38:54;;;;;;;5.70;4.90;;;6.10;99.90;;;;;;5011494;28;20233;-75
2022/02/03 02:44:29;;;;;;;5.50;5.00;;;6.10;99.90;;;;;;5010640;28;20681;-77
2022/02/03 02:46:56;;;;;;;6.25;5.10;;;6.10;99.90;;;;;;5011413;28;20632;-77
2022/02/03 02:49:27;;;;;;;7.28;5.45;;;6.10;99.90;;;;;;5011261;28;20207;-77
2022/02/03 02:52:00;;;;;;;4.88;4.47;;;6.10;99.90;;;;;;5010527;28;20207;-76
2022/02/03 02:57:50;;;;;;;5.95;5.10;;;6.10;99.90;;;;;;5010882;28;20610;-74
2022/02/03 03:00:50;;;;;;;7.25;5.50;;;6.10;99.90;;;;;;5011442;28;20377;-74
2022/02/03 03:29:11;;;;;;;5.47;4.88;;;5.90;99.90;;;;;;5011812;28;20213;-74
2022/02/03 03:31:56;;;;;;;5.80;5.10;;;5.90;99.90;;;;;;5011520;28;20207;-74
2022/02/03 03:34:47;;;;;;;6.45;5.75;;;5.90;99.90;;;;;;5011157;28;20303;-73
2022/02/03 03:37:26;;;;;;;5.70;5.10;;;5.90;99.90;;;;;;5011254;28;20210;-74
2022/02/03 03:39:57;;;;;;;5.60;5.03;;;6.00;99.90;;;;;;5011733;28;20697;-74
2022/02/03 03:42:31;;;;;;;7.30;6.60;;;5.90;99.90;;;;;;5011152;28;20601;-74
2022/02/03 03:45:01;;;;;;;6.85;6.03;;;5.90;99.90;;;;;;5012059;28;20257;-73
2022/02/03 03:47:32;;;;;;;6.75;5.35;;;5.90;99.90;;;;;;5011547;28;20206;-74
2022/02/03 03:50:09;;;;;;;6.70;6.00;;;5.90;99.90;;;;;;5012255;28;20213;-75
2022/02/03 03:52:46;;;;;;;7.93;5.80;;;5.80;99.90;;;;;;5011158;28;20198;-74
2022/02/03 03:55:22;;;;;;;6.25;5.57;;;5.90;99.90;;;;;;5014403;28;20225;-74
2022/02/03 03:58:11;;;;;;;6.43;5.65;;;5.80;99.90;;;;;;5016106;28;20205;-74
2022/02/03 04:01:00;;;;;;;7.05;6.00;;;5.90;99.90;;;;;;5015258;28;20210;-74
2022/02/03 04:29:33;;;;;;;6.18;5.47;;;5.80;99.90;;;;;;5014797;28;20239;-75
2022/02/03 04:40:58;;;;;;;6.30;5.70;;;5.80;99.90;;;;;;5020652;28;20251;-76
2022/02/03 04:59:07;;;;;;;7.95;6.55;;;5.70;99.90;;;;;;5030723;28;20194;-75
2022/02/03 05:02:07;;;;;;;7.22;5.82;;;5.60;99.90;;;;;;5032159;28;20193;-74
2022/02/03 05:04:49;;;;;;;7.00;6.30;;;5.70;99.90;;;;;;5031504;28;20182;-76
2022/02/03 05:07:47;;;;;;;7.72;6.85;;;5.70;99.90;;;;;;5032502;28;20213;-76
2022/02/03 05:10:42;;;;;;;7.47;6.20;;;5.70;99.90;;;;;;5032154;28;20194;-76
2022/02/03 05:13:38;;;;;;;7.25;6.35;;;5.70;99.90;;;;;;5029571;28;20193;-76
2022/02/03 05:16:38;;;;;;;7.25;6.55;;;5.70;99.90;;;;;;5024619;28;20226;-75
2022/02/03 05:25:23;;;;;;;8.80;7.20;;;5.70;99.90;;;;;;5021931;28;20449;-73
2022/02/03 05:49:14;;;;;;;6.00;5.40;;;5.60;99.90;;;;;;5023428;28;20576;-73
2022/02/03 06:02:52;;;;;;;6.70;5.38;;;5.40;99.90;;;;;;5031311;28;20296;-73
2022/02/03 06:05:27;;;;;;;8.75;5.78;;;5.50;99.90;;;;;;5032181;28;20328;-73
2022/02/03 06:08:02;;;;;;;7.40;6.05;;;5.40;99.90;;;;;;5031730;28;20215;-73
2022/02/03 06:13:17;;;;;;;6.82;5.40;;;5.40;99.90;;;;;;5031313;28;20205;-73
2022/02/03 06:16:02;;;;;;;6.60;5.28;;;5.50;99.90;;;;;;5031476;28;20234;-73
2022/02/03 06:21:29;;;;;;;6.47;5.80;;;5.50;99.90;;;;;;4995701;28;20196;-73
2022/02/03 06:24:06;;;;;;;7.05;6.20;;;5.60;99.90;;;;;;5030670;28;20208;-73
2022/02/03 06:29:23;;;;;;;5.68;5.13;;;5.60;99.90;;;;;;5031147;28;20212;-73
2022/02/03 06:31:52;;;;;;;8.73;6.10;;;5.70;99.90;;;;;;5031319;28;20202;-73
2022/02/03 06:34:21;;;;;;;6.10;5.50;;;5.70;99.90;;;;;;5030810;28;20575;-74
2022/02/03 06:36:50;;;;;;;6.30;5.70;;;5.70;99.90;;;;;;5030672;28;20221;-73
2022/02/03 06:39:18;;;;;;;5.82;5.22;;;5.70;99.90;;;;;;5025511;28;20197;-74
2022/02/03 06:41:45;;;;;;;6.10;5.50;;;5.70;99.90;;;;;;5029345;28;20205;-74
2022/02/03 06:44:14;;;;;;;6.55;5.85;;;5.80;99.90;;;;;;5029217;28;20205;-72
2022/02/03 06:46:45;;;;;;;6.72;6.05;;;5.80;99.90;;;;;;5028977;28;20313;-72
2022/02/03 06:49:18;;;;;;;6.30;5.53;;;5.80;99.90;;;;;;5029887;28;20209;-71
2022/02/03 06:51:54;;;;;;;6.93;5.80;;;5.80;99.90;;;;;;5029780;28;20232;-70
2022/02/03 06:54:29;;;;;;;6.63;5.60;;;5.80;99.90;;;;;;5028888;28;20262;-72
2022/02/03 06:57:00;;;;;;;6.88;5.95;;;5.80;99.90;;;;;;5029157;28;20213;-73
2022/02/03 06:59:36;;;;;;;6.28;5.53;;;5.90;99.90;;;;;;5029819;28;20565;-70
2022/02/03 07:02:03;;;;;;;6.72;6.03;;;5.90;99.90;;;;;;5030469;28;20201;-73
2022/02/03 07:04:39;;;;;;;6.22;5.63;;;5.90;99.90;;;;;;5029191;28;20288;-72
2022/02/03 07:07:06;;;;;;;6.20;5.50;;;5.90;99.90;;;;;;5029541;28;20284;-72
2022/02/03 07:09:32;;;;;;;7.90;6.80;;;6.00;99.90;;;;;;5028582;28;20190;-73
2022/02/03 07:12:02;;;;;;;6.97;6.32;;;6.00;99.90;;;;;;5029819;28;20201;-74
2022/02/03 07:14:31;;;;;;;7.30;6.50;;;6.00;99.90;;;;;;5029148;28;20197;-73
2022/02/03 07:17:00;;;;;;;6.60;6.00;;;6.00;99.90;;;;;;5029895;28;20201;-74
2022/02/03 07:19:27;;;;;;;6.80;6.10;;;6.00;99.90;;;;;;5029661;28;20296;-73
2022/02/03 07:21:55;;;;;;;6.28;5.68;;;6.10;99.90;;;;;;5029384;28;20241;-73
2022/02/03 07:24:22;;;;;;;6.50;5.80;;;6.10;99.90;;;;;;5029381;28;20208;-73
2022/02/03 07:26:49;;;;;;;6.82;5.97;;;6.10;99.90;;;;;;5029594;28;20231;-73
2022/02/03 07:29:16;;;;;;;6.68;5.80;;;6.20;99.90;;;;;;5029076;28;20206;-74
2022/02/03 07:31:43;;;;;;;8.25;5.75;;;6.20;99.90;;;;;;5029655;28;20202;-74
2022/02/03 07:34:13;;;;;;;7.10;6.40;;;6.20;99.90;;;;;;5029066;28;20209;-74
2022/02/03 07:36:42;;;;;;;5.85;5.25;;;6.20;99.90;;;;;;5029229;28;20221;-72
2022/02/03 07:39:11;;;;;;;6.60;5.82;;;6.20;99.90;;;;;;5029999;28;20233;-74
2022/02/03 07:41:37;;;;;;;6.00;5.40;;;6.30;99.90;;;;;;5029339;28;20202;-74
2022/02/03 07:44:05;;;;;;;6.22;5.63;;;6.30;99.90;;;;;;5028729;28;20685;-74
2022/02/03 07:46:32;;;;;;;6.75;6.05;;;6.40;99.90;;;;;;5028995;28;20252;-74
2022/02/03 07:48:59;;;;;;;5.65;5.13;;;6.40;99.90;;;;;;5029554;28;20668;-74
2022/02/03 07:51:26;;;;;;;6.00;5.40;;;6.50;99.90;;;;;;5028943;28;20213;-74
2022/02/03 07:53:53;;;;;;;6.90;5.40;;;6.50;99.90;;;;;;5028464;28;20206;-74
2022/02/03 07:56:21;;;;;;;6.47;5.55;;;6.40;99.90;;;;;;5028705;28;20225;-74
2022/02/03 07:58:48;;;;;;;7.03;6.35;;;6.40;99.90;;;;;;5114865;22;20231;-75
2022/02/03 08:01:15;;;;;;;5.88;5.32;;;6.40;99.90;;;;;;5049264;28;20684;-73
2022/02/03 08:03:44;;;;;;;6.25;5.65;;;6.40;99.90;;;;;;5046428;28;20228;-74
2022/02/03 08:06:16;;;;;;;6.28;5.47;;;6.50;99.90;;;;;;5055781;28;20217;-77
2022/02/03 08:08:47;;;;;;;8.60;6.90;;;6.50;99.90;;;;;;5067492;28;20566;-77
2022/02/03 08:11:19;;;;;;;6.57;5.93;;;6.40;99.90;;;;;;5070031;28;20729;-77
2022/02/03 08:13:53;;;;;;;5.90;5.30;;;6.40;99.90;;;;;;5057937;28;20201;-77
2022/02/03 08:16:25;;;;;;;6.40;5.35;;;6.40;99.90;;;;;;5049514;28;20274;-77
2022/02/03 08:19:05;;;;;;;6.15;5.30;;;6.40;99.90;;;;;;5050208;28;20619;-77
2022/02/03 08:21:35;;;;;;;7.47;5.45;;;6.40;99.90;;;;;;5049532;28;20205;-77
2022/02/03 08:27:21;;;;;;;5.28;4.80;;;6.50;99.90;;;;;;5049816;28;20343;-75
2022/02/03 08:32:32;;;;;;;5.38;4.85;;;6.70;99.90;;;;;;5048957;28;20237;-77
2022/02/03 08:35:10;;;;;;;5.18;4.68;;;6.90;99.90;;;;;;5049705;28;20229;-77
2022/02/03 08:37:46;;;;;;;5.55;5.05;;;7.20;99.90;;;;;;5049620;28;20196;-77
2022/02/03 08:40:23;;;;;;;4.38;3.97;;;7.50;99.90;;;;;;5050704;28;20196;-77
2022/02/03 08:42:50;;;;;;;4.38;3.97;;;7.60;99.90;;;;;;5052890;28;20201;-76
2022/02/03 08:45:18;;;;;;;4.68;4.28;;;7.60;99.90;;;;;;5053197;28;20217;-77
2022/02/03 08:47:46;;;;;;;4.53;4.18;;;7.70;99.90;;;;;;5053391;28;20201;-77
2022/02/03 08:50:13;;;;;;;4.30;3.90;;;7.90;99.90;;;;;;5053057;28;20197;-77
2022/02/03 08:52:51;;;;;;;4.45;4.05;;;8.00;99.90;;;;;;5052787;28;20669;-76
2022/02/03 08:55:25;;;;;;;4.50;3.97;;;8.20;99.90;;;;;;5052805;28;20224;-76
2022/02/03 09:28:35;;;;;;;2.72;2.53;;;9.90;99.90;;;;;;5071889;28;20291;-74
2022/02/03 09:36:47;;;;;;;3.90;2.83;;;8.80;99.90;;;;;;5041714;28;20325;-77
2022/02/03 09:39:22;;;;;;;7.72;2.78;;;8.80;99.90;;;;;;5071676;28;20236;-76
2022/02/03 09:56:11;;;;;;;2.50;2.30;;;9.90;99.90;;;;;;5072432;28;20238;-77
2022/02/03 09:58:53;;;;;;;3.70;2.08;;;11.00;99.90;;;;;;5072926;28;20299;-77
2022/02/03 10:01:33;;;;;;;2.10;1.90;;;12.00;99.90;;;;;;5071111;28;20196;-76
2022/02/03 10:04:09;;;;;;;1.92;1.83;;;12.30;99.90;;;;;;5070942;28;20315;-77
2022/02/03 10:06:52;;;;;;;2.40;2.15;;;11.80;99.90;;;;;;5071435;28;20224;-76
2022/02/03 10:09:36;;;;;;;3.47;1.90;;;11.40;99.90;;;;;;5070969;28;20207;-77
2022/02/03 10:12:04;;;;;;;1.95;1.48;;;10.80;99.90;;;;;;5071118;28;20200;-76
2022/02/03 10:14:35;;;;;;;2.50;2.08;;;10.50;99.90;;;;;;5070413;28;20205;-74
2022/02/03 10:17:03;;;;;;;2.40;1.90;;;10.20;99.90;;;;;;5071069;28;20228;-77
2022/02/03 10:19:35;;;;;;;2.58;2.38;;;10.30;99.90;;;;;;5070931;28;20262;-76
2022/02/03 10:22:11;;;;;;;2.00;1.70;;;10.80;99.90;;;;;;5070195;28;20234;-76
2022/02/03 10:24:39;;;;;;;2.08;1.88;;;11.60;99.90;;;;;;5070850;28;20200;-76
2022/02/03 10:27:21;;;;;;;1.83;1.65;;;13.00;99.90;;;;;;5070432;28;20196;-76
2022/02/03 10:29:48;;;;;;;2.00;1.90;;;15.30;99.90;;;;;;5070365;28;20279;-74
2022/02/03 10:32:15;;;;;;;2.00;1.80;;;16.40;99.90;;;;;;5069920;28;20238;-77
2022/02/03 10:34:43;;;;;;;1.80;1.70;;;16.20;99.90;;;;;;5071187;28;20716;-76
2022/02/03 10:37:21;;;;;;;1.80;1.60;;;16.80;99.90;;;;;;5070391;28;20485;-77
2022/02/03 10:51:20;;;;;;;1.73;1.63;;;11.40;99.90;;;;;;5039800;28;20195;-77
2022/02/03 10:57:20;;;;;;;1.50;1.40;;;13.20;99.90;;;;;;5055101;28;20277;-77
2022/02/03 11:00:06;;;;;;;1.60;1.50;;;14.10;99.90;;;;;;5072103;28;20843;-77
2022/02/03 11:02:49;;;;;;;2.20;1.70;;;14.10;99.90;;;;;;5070492;28;20746;-77
2022/02/03 11:05:45;;;;;;;1.55;1.40;;;13.60;99.90;;;;;;5071407;28;20221;-77
2022/02/03 11:08:16;;;;;;;2.47;1.65;;;12.80;99.90;;;;;;5058969;28;20208;-76
2022/02/03 11:10:51;;;;;;;1.95;1.77;;;11.60;99.90;;;;;;5051192;28;20735;-77
2022/02/03 11:13:20;;;;;;;1.40;1.30;;;10.90;99.90;;;;;;5050167;28;20255;-77
2022/02/03 11:15:49;;;;;;;1.50;1.40;;;10.30;99.90;;;;;;5050773;28;20225;-77
2022/02/03 11:18:18;;;;;;;1.75;1.65;;;10.10;99.90;;;;;;5049527;28;20201;-77
2022/02/03 11:20:45;;;;;;;2.00;1.80;;;9.90;99.90;;;;;;5049509;28;20661;-77
2022/02/03 11:23:23;;;;;;;1.67;1.58;;;9.90;99.90;;;;;;5049853;28;20201;-76
2022/02/03 11:26:03;;;;;;;2.05;1.63;;;9.80;99.90;;;;;;5050177;28;20213;-76
2022/02/03 11:31:53;;;;;;;1.98;1.80;;;9.80;99.90;;;;;;5049440;28;20197;-75
2022/02/03 11:34:56;;;;;;;1.70;1.60;;;9.70;99.90;;;;;;5049593;28;20284;-77
2022/02/03 11:37:47;;;;;;;1.45;1.35;;;9.60;99.90;;;;;;5049579;28;20781;-77
2022/02/03 11:43:38;;;;;;;1.88;1.73;;;9.40;99.90;;;;;;5049467;28;20220;-75
2022/02/03 11:52:33;;;;;;;1.30;1.20;;;9.50;99.90;;;;;;5108354;28;20335;-75
2022/02/03 11:58:26;;;;;;;1.65;1.40;;;9.50;99.90;;;;;;5087906;28;20214;-74
2022/02/03 12:01:17;;;;;;;1.40;1.25;;;9.60;99.90;;;;;;5087500;28;20210;-74
2022/02/03 12:07:19;;;;;;;1.50;1.40;;;10.00;99.90;;;;;;5086997;27;20555;-74
2022/02/03 12:13:04;;;;;;;1.73;1.45;;;10.20;99.90;;;;;;5024717;28;20565;-74
2022/02/03 12:18:20;;;;;;;1.58;1.40;;;10.30;99.90;;;;;;5052925;28;20259;-75
2022/02/03 12:20:57;;;;;;;2.22;1.63;;;10.40;99.90;;;;;;5066710;28;20208;-74
2022/02/03 12:23:53;;;;;;;1.70;1.60;;;10.50;99.90;;;;;;5067095;28;20314;-74
2022/02/03 12:26:27;;;;;;;2.75;2.03;;;10.40;99.90;;;;;;5067415;28;20282;-74
2022/02/03 12:28:55;;;;;;;2.50;1.70;;;10.70;99.90;;;;;;5067491;28;20204;-74
2022/02/03 12:37:10;;;;;;;1.25;1.15;;;11.10;99.90;;;;;;5072133;28;20218;-73
2022/02/03 12:39:54;;;;;;;1.70;1.60;;;11.10;99.90;;;;;;5088385;28;20659;-73
2022/02/03 12:42:54;;;;;;;2.00;1.48;;;10.80;99.90;;;;;;5087937;28;20204;-74
2022/02/03 12:45:26;;;;;;;1.88;1.63;;;10.70;99.90;;;;;;5066055;28;20318;-73
2022/02/03 12:47:56;;;;;;;2.15;1.70;;;10.90;99.90;;;;;;5065008;28;20317;-74
2022/02/03 12:50:25;;;;;;;1.90;1.30;;;11.00;99.90;;;;;;5063365;28;20197;-74
2022/02/03 12:52:53;;;;;;;2.13;1.92;;;11.10;99.90;;;;;;5062640;28;20189;-73
2022/02/03 12:55:28;;;;;;;2.15;1.65;;;11.10;99.90;;;;;;5063235;28;20797;-74
2022/02/03 12:57:56;;;;;;;1.90;1.55;;;10.80;99.90;;;;;;5063407;28;20844;-73
2022/02/03 13:00:30;;;;;;;4.65;1.90;;;10.50;99.90;;;;;;5063541;28;20232;-74
2022/02/03 13:02:59;;;;;;;1.90;1.58;;;10.30;99.90;;;;;;5062810;28;20549;-73
2022/02/03 13:05:28;;;;;;;1.90;1.70;;;10.20;99.90;;;;;;5062850;28;20278;-74
2022/02/03 13:07:58;;;;;;;1.92;1.75;;;10.20;99.90;;;;;;5061512;28;20240;-74
2022/02/03 13:10:29;;;;;;;2.22;2.03;;;10.30;99.90;;;;;;5063634;28;20197;-73
2022/02/03 13:13:10;;;;;;;3.83;1.73;;;10.30;99.90;;;;;;5062719;28;20224;-72
2022/02/03 13:15:41;;;;;;;2.03;1.80;;;10.40;99.90;;;;;;5063009;28;20234;-74
2022/02/03 13:18:13;;;;;;;1.80;1.70;;;10.20;99.90;;;;;;5050254;28;20279;-74
2022/02/03 13:20:46;;;;;;;1.95;1.80;;;9.90;99.90;;;;;;5052184;28;20209;-74
2022/02/03 13:23:19;;;;;;;2.85;2.20;;;9.90;99.90;;;;;;5048325;28;20288;-74
2022/02/03 13:26:02;;;;;;;2.40;1.90;;;10.00;99.90;;;;;;5051349;28;20252;-73
2022/02/03 13:31:28;;;;;;;2.08;1.80;;;9.80;99.90;;;;;;5049656;28;20288;-74
2022/02/03 13:34:10;;;;;;;1.70;1.60;;;9.50;99.90;;;;;;5050895;28;20299;-74
2022/02/03 13:36:46;;;;;;;1.65;1.55;;;9.50;99.90;;;;;;5051526;28;20290;-73
2022/02/03 13:39:25;;;;;;;2.00;1.80;;;9.60;99.90;;;;;;5052326;28;20201;-74
2022/02/03 13:42:04;;;;;;;4.00;2.05;;;9.80;99.90;;;;;;5052039;28;20223;-74
2022/02/03 13:44:32;;;;;;;1.85;1.65;;;9.90;99.90;;;;;;5051724;28;20211;-74
2022/02/03 13:46:59;;;;;;;1.90;1.67;;;10.00;99.90;;;;;;5050691;28;20225;-74
2022/02/03 13:49:28;;;;;;;2.30;2.03;;;9.90;99.90;;;;;;5051648;28;20614;-74
2022/02/03 13:52:02;;;;;;;2.05;1.77;;;9.80;99.90;;;;;;5051098;28;20254;-74
2022/02/03 13:54:39;;;;;;;2.40;2.08;;;9.70;99.90;;;;;;5051266;28;20291;-73
2022/02/03 14:14:17;;;;;;;2.50;2.30;;;9.90;99.90;;;;;;5050047;28;20196;-74
2022/02/03 14:20:05;;;;;;;2.80;2.42;;;9.90;99.90;;;;;;5051196;28;20196;-75
2022/02/03 14:22:54;;;;;;;2.17;1.88;;;9.90;99.90;;;;;;5050588;28;20324;-74
2022/02/03 14:28:03;;;;;;;4.35;2.50;;;9.50;99.90;;;;;;5049908;28;20200;-74
2022/02/03 14:30:32;;;;;;;2.58;2.35;;;9.40;99.90;;;;;;5050375;28;20197;-74
2022/02/03 14:33:00;;;;;;;3.38;2.75;;;9.40;99.90;;;;;;5050202;28;20208;-75
2022/02/03 14:35:29;;;;;;;2.40;2.20;;;9.40;99.90;;;;;;5049587;28;20237;-74
2022/02/03 14:38:04;;;;;;;2.85;2.55;;;9.40;99.90;;;;;;5049990;28;20240;-74
2022/02/03 14:40:37;;;;;;;2.35;2.13;;;9.40;99.90;;;;;;5051064;28;20212;-74
2022/02/03 14:43:05;;;;;;;2.47;2.28;;;9.40;99.90;;;;;;5049339;28;20209;-74
2022/02/03 14:45:35;;;;;;;2.30;2.10;;;9.40;99.90;;;;;;5050158;28;20224;-74
2022/02/03 14:48:02;;;;;;;2.85;2.10;;;9.30;99.90;;;;;;5050067;28;20208;-74
2022/02/03 14:50:29;;;;;;;2.63;2.42;;;9.40;99.90;;;;;;5050042;28;20208;-74
2022/02/03 14:52:58;;;;;;;2.35;2.05;;;9.40;99.90;;;;;;5049549;28;20607;-73
2022/02/03 14:58:23;;;;;;;2.90;2.30;;;9.40;99.90;;;;;;5050016;28;20200;-73
2022/02/03 15:00:51;;;;;;;3.70;2.50;;;9.30;99.90;;;;;;5050035;28;20205;-73
2022/02/03 15:03:19;;;;;;;2.85;2.50;;;9.20;99.90;;;;;;5049616;28;20201;-74
2022/02/03 15:05:46;;;;;;;2.97;1.90;;;9.20;99.90;;;;;;5049153;28;20639;-74
2022/02/03 15:08:19;;;;;;;3.13;2.00;;;9.10;99.90;;;;;;5066827;28;20207;-74
2022/02/03 15:10:51;;;;;;;3.97;2.45;;;9.10;99.90;;;;;;5070127;28;20677;-73
2022/02/03 15:13:33;;;;;;;7.57;2.50;;;9.00;99.90;;;;;;5068638;28;20261;-73
2022/02/03 15:16:01;;;;;;;1.98;1.77;;;9.00;99.90;;;;;;5069456;28;20266;-73
2022/02/03 15:18:28;;;;;;;2.28;1.90;;;9.00;99.90;;;;;;5069546;28;20204;-74
2022/02/03 15:20:56;;;;;;;2.00;1.90;;;8.90;99.90;;;;;;5069273;28;20197;-73
2022/02/03 15:23:23;;;;;;;2.85;2.08;;;8.90;99.90;;;;;;5069065;28;20205;-73
2022/02/03 15:25:50;;;;;;;2.28;2.10;;;8.90;99.90;;;;;;5068927;28;20223;-74
2022/02/03 15:28:17;;;;;;;2.28;2.08;;;8.90;99.90;;;;;;5069401;28;20204;-74
2022/02/03 15:30:44;;;;;;;2.03;1.50;;;8.90;99.90;;;;;;5069969;28;20204;-73
2022/02/03 15:33:12;;;;;;;2.45;1.88;;;8.90;99.90;;;;;;5068702;28;20215;-74
2022/02/03 15:35:43;;;;;;;2.40;1.90;;;8.90;99.90;;;;;;5068998;28;20282;-74
2022/02/03 15:38:14;;;;;;;2.28;1.92;;;8.90;99.90;;;;;;5069241;28;20599;-74
2022/02/03 15:40:41;;;;;;;2.15;1.95;;;8.90;99.90;;;;;;5069467;28;20196;-74
2022/02/03 15:43:12;;;;;;;3.20;2.10;;;8.80;99.90;;;;;;5068221;28;20235;-74
2022/02/03 15:45:41;;;;;;;3.08;2.33;;;8.80;99.90;;;;;;5069050;28;22114;-73
2022/02/03 15:48:18;;;;;;;2.17;2.00;;;8.80;99.90;;;;;;5069442;28;20200;-74
2022/02/03 15:56:34;;;;;;;2.75;2.13;;;8.70;99.90;;;;;;5028991;28;20770;-76
2022/02/03 16:01:55;;;;;;;3.05;2.72;;;8.60;99.90;;;;;;5029163;28;20197;-77
2022/02/03 16:18:13;;;;;;;2.75;2.15;;;8.10;99.90;;;;;;5048486;28;20205;-76
2022/02/03 16:20:45;;;;;;;2.55;2.08;;;8.10;99.90;;;;;;5048818;28;20212;-77
2022/02/03 16:23:33;;;;;;;3.25;2.30;;;8.00;99.90;;;;;;5048339;28;20205;-76
2022/02/03 16:26:40;;;;;;;2.13;1.92;;;8.00;99.90;;;;;;5047697;28;20376;-78
2022/02/03 16:51:09;;;;;;;2.70;2.25;;;7.50;99.90;;;;;;5048570;28;20204;-75
2022/02/03 16:53:35;;;;;;;4.40;2.65;;;7.50;99.90;;;;;;5051087;28;20216;-75
2022/02/03 16:56:08;;;;;;;2.97;2.78;;;7.40;99.90;;;;;;5051204;28;20221;-76
2022/02/03 16:58:36;;;;;;;2.50;2.30;;;7.40;99.90;;;;;;5052025;28;20665;-76
2022/02/03 17:01:03;;;;;;;3.55;2.80;;;7.40;99.90;;;;;;5057569;28;20581;-77
2022/02/03 17:03:30;;;;;;;2.63;2.38;;;7.30;99.90;;;;;;5050444;28;20201;-76
2022/02/03 17:05:57;;;;;;;2.58;2.38;;;7.30;99.90;;;;;;5051129;28;20232;-76
2022/02/03 17:08:24;;;;;;;4.25;2.45;;;7.30;99.90;;;;;;5051562;28;20730;-76
2022/02/03 17:10:51;;;;;;;2.78;2.15;;;7.20;99.90;;;;;;5051661;28;20629;-75
2022/02/03 17:13:20;;;;;;;3.10;2.80;;;7.20;99.90;;;;;;5050636;28;20205;-77
2022/02/03 17:15:47;;;;;;;2.80;2.20;;;7.20;99.90;;;;;;5051214;28;20229;-75
2022/02/03 17:18:14;;;;;;;3.10;2.90;;;7.20;99.90;;;;;;5051361;28;20212;-75
2022/02/03 17:20:42;;;;;;;2.50;2.20;;;7.10;99.90;;;;;;5052285;28;20584;-77
2022/02/03 17:23:12;;;;;;;2.60;2.40;;;7.10;99.90;;;;;;5051795;28;20260;-75
2022/02/03 17:25:47;;;;;;;5.18;1.85;;;7.00;99.90;;;;;;5054771;28;20228;-75
2022/02/03 17:28:19;;;;;;;2.42;2.20;;;7.00;99.90;;;;;;5053946;28;20208;-75
2022/02/03 17:30:52;;;;;;;2.10;1.88;;;6.90;99.90;;;;;;5053507;28;20198;-75
2022/02/03 18:09:12;;;;;;;3.40;3.10;;;6.50;99.90;;;;;;5032016;28;20188;-76
2022/02/03 18:17:09;;;;;;;4.00;3.60;;;6.50;99.90;;;;;;5050690;28;20201;-76
2022/02/03 18:17:52;;;;;;;5.80;4.13;;;6.40;99.90;;;;;;5049572;28;20877;-76
2022/02/03 18:26:34;;;;;;;6.43;4.50;;;6.20;99.90;;;;;;5045883;28;20263;-76
2022/02/03 18:34:53;;;;;;;6.88;4.63;;;6.00;99.90;;;;;;4984805;28;20294;-76
2022/02/03 18:37:36;;;;;;;4.55;3.05;;;6.00;99.90;;;;;;5038343;28;20204;-76
2022/02/03 18:46:27;;;;;;;13.98;5.95;;;5.80;99.90;;;;;;5045654;28;20225;-76
2022/02/03 18:51:33;;;;;;;24.95;10.23;;;5.80;99.90;;;;;;5044090;28;20956;-76
2022/02/03 18:54:13;;;;;;;21.33;9.00;;;5.80;99.90;;;;;;5045510;28;20201;-76
2022/02/03 18:56:46;;;;;;;18.33;8.25;;;5.70;99.90;;;;;;5043389;28;20549;-76
2022/02/03 18:59:27;;;;;;;14.40;7.22;;;5.70;99.90;;;;;;5044520;28;20300;-76
2022/02/03 19:02:18;;;;;;;10.05;5.63;;;5.60;99.90;;;;;;5045238;28;20197;-75
2022/02/03 19:15:50;;;;;;;16.85;7.97;;;5.50;99.90;;;;;;5040845;28;20311;-78
2022/02/03 19:24:17;;;;;;;37.88;12.38;;;5.50;99.90;;;;;;5040744;28;20878;-76
2022/02/03 19:27:10;;;;;;;35.22;12.00;;;5.40;99.90;;;;;;5048519;28;20225;-75
2022/02/03 20:05:43;;;;;;;10.73;6.53;;;5.10;99.90;;;;;;5082686;27;1299500;-73
2022/02/03 20:08:15;;;;;;;24.25;9.75;;;5.00;99.90;;;;;;5106431;28;20285;-74
2022/02/03 20:10:45;;;;;;;20.48;9.88;;;5.00;99.90;;;;;;5106592;28;20305;-73
2022/02/03 20:13:12;;;;;;;28.05;9.32;;;4.90;99.90;;;;;;5106112;28;20243;-75
2022/02/03 20:15:40;;;;;;;17.73;9.55;;;4.90;99.90;;;;;;5105806;28;20219;-74
2022/02/03 20:18:11;;;;;;;18.40;8.23;;;4.90;99.90;;;;;;5104235;28;20595;-74
2022/02/03 20:20:40;;;;;;;16.88;8.10;;;4.90;99.90;;;;;;5102526;28;20558;-74
2022/02/03 20:23:10;;;;;;;17.45;8.40;;;4.90;99.90;;;;;;5119964;28;20789;-75
2022/02/03 20:25:38;;;;;;;16.15;9.38;;;4.80;99.90;;;;;;5122399;28;20315;-76
2022/02/03 20:28:05;;;;;;;16.52;8.95;;;4.80;99.90;;;;;;5122169;28;20206;-75
2022/02/03 20:30:32;;;;;;;14.10;9.50;;;4.70;99.90;;;;;;5124446;28;20959;-75
2022/02/03 20:32:59;;;;;;;12.90;8.93;;;4.70;99.90;;;;;;5122872;28;20199;-75
2022/02/03 20:35:26;;;;;;;10.25;7.43;;;4.70;99.90;;;;;;5122727;28;20218;-75
2022/02/03 20:37:55;;;;;;;8.77;5.55;;;4.60;99.90;;;;;;5124912;28;20233;-75
2022/02/03 20:40:22;;;;;;;9.70;6.88;;;4.70;99.90;;;;;;5123718;28;20199;-75
2022/02/03 20:42:49;;;;;;;8.63;7.40;;;4.70;99.90;;;;;;5124129;28;20210;-75
2022/02/03 20:45:16;;;;;;;8.07;7.25;;;4.60;99.90;;;;;;5123278;28;20227;-74
2022/02/03 20:47:42;;;;;;;9.63;7.53;;;4.60;99.90;;;;;;5124165;28;20249;-75
2022/02/03 20:50:13;;;;;;;10.68;7.63;;;4.60;99.90;;;;;;5124278;28;20974;-75
2022/02/03 20:52:39;;;;;;;15.02;8.80;;;4.60;99.90;;;;;;5124539;28;20222;-74
2022/02/03 20:55:08;;;;;;;17.23;9.20;;;4.60;99.90;;;;;;5123628;28;20222;-74
2022/02/03 20:57:36;;;;;;;17.10;10.32;;;4.60;99.90;;;;;;5124064;28;20207;-74
2022/02/03 21:00:17;;;;;;;24.55;12.52;;;4.60;99.90;;;;;;5124051;28;20674;-75
2022/02/03 21:02:50;;;;;;;26.98;12.30;;;4.60;99.90;;;;;;5123802;28;20203;-74
2022/02/03 21:05:17;;;;;;;19.33;12.77;;;4.60;99.90;;;;;;5114800;28;20226;-74
2022/02/03 21:07:45;;;;;;;18.70;10.40;;;4.50;99.90;;;;;;5103955;28;20199;-74
2022/02/03 21:10:17;;;;;;;14.88;9.50;;;4.50;99.90;;;;;;5103463;28;20633;-74
2022/02/03 21:12:45;;;;;;;14.15;8.68;;;4.60;99.90;;;;;;5103584;28;20234;-75
2022/02/03 21:15:13;;;;;;;11.00;7.57;;;4.60;99.90;;;;;;5098611;28;20223;-75
2022/02/03 21:17:40;;;;;;;13.52;9.75;;;4.60;99.90;;;;;;5088029;28;20260;-75
2022/02/03 21:20:11;;;;;;;11.23;7.47;;;4.60;99.90;;;;;;5088721;28;20227;-74
2022/02/03 21:22:39;;;;;;;11.38;9.00;;;4.70;99.90;;;;;;5086166;28;20215;-74
2022/02/03 21:25:18;;;;;;;14.43;10.35;;;4.70;99.90;;;;;;5089885;28;20227;-75